Latest Weather Observations for Hogan Island

IDV60801

Issued at 5:33 am EST Thursday 17 August 2017 (issued every 30 minutes, with the page automatically refreshed every 10 minutes)

About weather observations | Map of weather stations | Latest weather observations for VIC | Other Formats
Station Details ID: 200838 Name: HOGAN ISLAND Lat: -39.22 Lon: 146.98 Height: 116.0 m
Data from the previous 72 hours. | See also: Recent months at Hogan Island
Date/Time
EST
Temp
°C
App
Temp
°C
Dew
Point
°C
Rel
Hum
%
Delta-T
°C
Wind Press
QNH
hPa
Press
MSL
hPa
Rain since
9am
mm
Dir  Spd
km/h
Gust
km/h
Spd
kts
Gust
kts
17/05:30am 11.0 - - - - WNW 72 91 39 49 995.9 - 16.4
17/05:00am 11.0 - - - - WNW 80 102 43 55 995.6 - 16.4
17/04:56am 11.0 - - - - WNW 80 102 43 55 995.1 - 16.4
17/04:30am 10.7 - - - - WNW 78 91 42 49 995.5 - 16.4
17/04:00am 10.4 - - - - WNW 78 87 42 47 995.1 - 16.4
17/03:30am 10.6 - - - - WNW 72 83 39 45 995.6 - 16.4
17/03:05am 10.5 - - - - WNW 70 89 38 48 995.7 - 16.4
17/03:00am 10.2 - - - - WNW 70 87 38 47 995.9 995.9 16.4
17/02:30am 10.4 - - - - WNW 76 91 41 49 995.7 - 16.4
17/02:10am 9.2 - - - - WNW 78 113 42 61 995.5 - 16.4
17/02:00am 8.9 - - - - WNW 98 126 53 68 994.6 - 16.2
17/01:56am 9.0 - - - - WNW 95 117 51 63 995.3 - 16.0
17/01:53am 9.1 - - - - WNW 93 106 50 57 995.3 - 16.0
17/01:32am 7.8 - - - - W 72 109 39 59 996.4 - 14.6
17/01:30am 8.4 - - - - WNW 69 87 37 47 997.0 - 13.8
17/01:29am 8.7 - - - - WNW 69 87 37 47 997.3 - 13.6
17/01:00am 10.7 - - - - WNW 76 89 41 48 996.2 - 12.4
17/12:45am 10.2 - - - - WNW 82 100 44 54 996.3 - 12.4
17/12:30am 11.0 - - - - WNW 85 98 46 53 996.1 - 12.2
17/12:00am 11.1 - - - - WNW 78 93 42 50 996.4 996.5 12.2
 
Date/Time
EST
Temp
°C
App
Temp
°C
Dew
Point
°C
Rel
Hum
%
Delta-T
°C
Wind Press
QNH
hPa
Press
MSL
hPa
Rain since
9am
mm
Dir  Spd
km/h
Gust
km/h
Spd
kts
Gust
kts
16/11:30pm 11.1 - - - - WNW 72 83 39 45 996.8 - 12.2
16/11:04pm 10.8 - - - - WNW 59 78 32 42 997.1 - 12.2
16/11:00pm 10.6 - - - - WNW 56 72 30 39 997.3 - 12.2
16/10:52pm 10.2 - - - - WNW 54 76 29 41 997.6 - 12.2
16/10:33pm 9.4 - - - - WNW 74 93 40 50 997.3 - 11.8
16/10:30pm 9.8 - - - - WNW 74 89 40 48 997.1 - 11.6
16/10:15pm 10.4 - - - - WNW 61 80 33 43 997.4 - 11.6
16/10:00pm 9.6 - - - - WNW 59 69 32 37 997.7 - 11.6
16/09:30pm 8.1 - - - - W 69 83 37 45 998.0 - 11.0
16/09:19pm 9.1 - - - - W 67 91 36 49 997.9 - 10.4
16/09:00pm 9.1 - - - - W 63 76 34 41 997.9 998.0 9.6
16/08:40pm 8.1 - - - - W 74 122 40 66 997.7 - 9.0
16/08:38pm 8.1 - - - - W 104 122 56 66 997.0 - 8.8
16/08:36pm 8.2 - - - - W 107 122 58 66 996.5 - 8.4
16/08:35pm 8.4 - - - - W 78 122 42 66 996.9 - 8.2
16/08:31pm 9.3 - - - - W 74 93 40 50 997.6 - 8.0
16/08:30pm 9.7 - - - - W 76 93 41 50 997.6 - 8.0
16/08:14pm 10.2 - - - - W 89 107 48 58 996.9 - 8.0
16/08:13pm 10.4 - - - - W 93 107 50 58 996.6 - 8.0
16/08:03pm 11.9 - - - - WNW 72 91 39 49 996.8 - 8.0
16/08:00pm 11.9 - - - - WNW 74 87 40 47 996.8 - 8.0
16/07:31pm 12.1 - - - - WNW 70 95 38 51 996.1 - 8.0
16/07:30pm 11.9 - - - - WNW 69 83 37 45 996.2 - 8.0
16/07:14pm 11.8 - - - - WNW 72 91 39 49 996.4 - 8.0
16/07:00pm 11.5 - - - - WNW 70 83 38 45 996.4 - 8.0
16/06:30pm 11.3 - - - - WNW 85 104 46 56 995.7 - 8.0
16/06:22pm 11.2 - - - - WNW 95 113 51 61 995.3 - 8.0
16/06:17pm 11.3 - - - - WNW 93 107 50 58 995.0 - 8.0
16/06:09pm 11.6 - - - - WNW 74 96 40 52 995.3 - 8.0
16/06:00pm 11.3 - - - - WNW 70 91 38 49 995.6 995.6 8.0
16/05:59pm 11.3 - - - - WNW 67 91 36 49 995.7 - 8.0
16/05:30pm 9.4 - - - - W 89 98 48 53 994.6 - 8.0
16/05:00pm 10.4 - - - - WNW 102 128 55 69 993.5 - 6.8
16/04:58pm 11.3 - - - - WNW 98 117 53 63 993.7 - 6.8
16/04:57pm 11.7 - - - - WNW 96 109 52 59 993.7 - 6.8
16/04:31pm 11.3 - - - - WNW 76 95 41 51 994.0 - 6.8
16/04:30pm 11.2 - - - - WNW 76 93 41 50 994.3 - 6.8
16/04:00pm 11.9 - - - - WNW 89 111 48 60 993.1 - 6.6
16/03:31pm 11.9 - - - - WNW 100 119 54 64 992.1 - 6.6
16/03:30pm 12.1 - - - - WNW 102 119 55 64 992.0 - 6.6
16/03:26pm 12.2 - - - - WNW 104 119 56 64 991.7 - 6.6
16/03:08pm 12.1 - - - - W 83 102 45 55 992.7 - 6.6
16/03:00pm 11.8 - - - - WNW 89 104 48 56 992.5 992.6 6.6
16/02:30pm 11.7 - - - - WNW 85 107 46 58 991.7 - 6.6
16/02:00pm 11.2 - - - - WNW 96 115 52 62 991.1 - 6.6
16/01:50pm 10.8 - - - - WNW 95 113 51 61 990.8 - 6.6
16/01:49pm 10.7 - - - - WNW 95 111 51 60 990.9 - 6.6
16/01:31pm 9.9 - - - - W 70 102 38 55 991.6 - 6.6
16/01:30pm 10.0 - - - - W 67 107 36 58 992.2 - 6.6
16/01:29pm 9.8 - - - - W 67 107 36 58 992.3 - 6.6
16/01:25pm 9.2 - - - - W 89 107 48 58 992.1 - 6.6
16/01:21pm 9.1 - - - - W 96 107 52 58 991.4 - 6.4
16/01:14pm 10.1 - - - - WNW 74 93 40 50 991.4 - 5.8
16/01:11pm 9.8 - - - - WNW 72 85 39 46 991.6 - 5.8
16/01:00pm 7.5 - - - - W 91 135 49 73 991.7 - 5.6
16/12:37pm 8.8 - - - - WNW 91 122 49 66 990.1 - 3.8
16/12:30pm 10.9 - - - - WNW 83 102 45 55 990.9 - 3.8
16/12:16pm 10.4 - - - - WNW 96 117 52 63 990.7 - 3.8
16/12:12pm 10.1 - - - - WNW 102 115 55 62 989.8 - 3.6
16/12:00pm 10.6 - - - - WNW 78 98 42 53 991.1 991.2 3.6
16/11:30am 11.3 - - - - WNW 89 107 48 58 990.1 - 3.2
16/11:06am 11.4 - - - - WNW 89 107 48 58 990.2 - 3.2
16/11:00am 11.2 - - - - WNW 89 104 48 56 990.3 - 3.2
16/10:57am 10.8 - - - - WNW 95 104 51 56 989.9 - 3.2
16/10:37am 9.3 - - - - WNW 74 93 40 50 990.8 - 3.0
16/10:30am 9.6 - - - - WNW 82 96 44 52 990.7 - 2.6
16/10:19am 10.5 - - - - WNW 82 111 44 60 990.1 - 2.2
16/10:06am 10.5 - - - - WNW 102 120 55 65 989.0 - 2.0
16/10:05am 10.4 - - - - WNW 106 120 57 65 988.8 - 2.0
16/10:03am 10.1 - - - - W 80 107 43 58 989.6 - 2.0
16/10:00am 10.2 - - - - W 82 96 44 52 990.0 - 2.0
16/09:30am 9.2 - - - - W 95 126 51 68 989.5 - 1.4
16/09:21am 8.9 - - - - WNW 96 126 52 68 988.8 - 0.6
16/09:14am 10.6 - - - - WNW 83 104 45 56 988.7 - 0.0
16/09:07am 10.3 - - - - WNW 83 126 45 68 988.9 - 0.0
16/09:01am 10.4 - - - - WNW 107 126 58 68 987.7 - 0.0
16/09:00am 10.5 - - - - WNW 107 124 58 67 987.7 987.7 10.2
16/08:57am 10.7 - - - - WNW 106 124 57 67 987.7 - 10.2
16/08:50am 10.5 - - - - WNW 76 98 41 53 988.8 - 10.0
16/08:46am 10.5 - - - - WNW 67 102 36 55 989.5 - 10.0
16/08:30am 11.1 - - - - WNW 87 106 47 57 988.8 - 9.6
16/08:00am 11.5 - - - - WNW 85 104 46 56 988.3 - 9.6
16/07:33am 11.6 - - - - WNW 89 107 48 58 988.3 - 9.6
16/07:30am 11.6 - - - - WNW 93 107 50 58 988.1 - 9.6
16/07:00am 11.4 - - - - WNW 85 107 46 58 987.5 - 9.6
16/06:30am 11.2 - - - - WNW 76 85 41 46 988.4 - 9.6
16/06:00am 11.1 - 12.0 - - WNW 70 80 38 43 988.3 988.3 9.6
16/05:30am 11.1 - 12.0 - - WNW 61 76 33 41 988.7 - 9.6
16/05:00am 11.4 - 12.4 - - WNW 52 57 28 31 989.2 - 9.6
16/04:30am 11.0 - - - - WNW 56 63 30 34 989.2 - 9.6
16/04:00am 11.1 - - - - WNW 57 65 31 35 989.5 - 9.6
16/03:30am 11.7 - - - - WNW 52 63 28 34 990.3 - 9.6
16/03:24am 11.7 - - - - NW 43 63 23 34 990.3 - 9.6
16/03:00am 11.5 - - - - WNW 46 50 25 27 990.6 990.7 9.6
16/02:30am 11.1 - - - - WNW 46 52 25 28 991.2 - 9.6
16/02:12am 10.9 - - - - WNW 44 56 24 30 991.4 - 9.6
16/02:00am 10.4 - - - - WNW 32 35 17 19 992.0 - 9.6
16/01:30am 10.5 - - - - WNW 35 43 19 23 992.7 - 9.6
16/01:00am 10.2 - - - - W 48 56 26 30 993.4 - 9.6
16/12:30am 9.9 - - - - W 59 70 32 38 993.5 - 9.4
16/12:11am 10.2 - - - - W 57 61 31 33 993.6 - 8.4
16/12:00am 10.2 - - - - W 39 48 21 26 993.8 993.8 7.6
 
Date/Time
EST
Temp
°C
App
Temp
°C
Dew
Point
°C
Rel
Hum
%
Delta-T
°C
Wind Press
QNH
hPa
Press
MSL
hPa
Rain since
9am
mm
Dir  Spd
km/h
Gust
km/h
Spd
kts
Gust
kts
15/11:30pm 10.4 - - - - W 41 46 22 25 994.2 - 6.6
15/11:00pm 10.5 - - - - W 52 61 28 33 994.8 - 4.8
15/10:43pm 10.9 - - - - W 57 76 31 41 994.4 - 3.4
15/10:30pm 11.2 - - - - W 59 76 32 41 994.6 - 3.2
15/10:24pm 11.7 - - - - W 52 72 28 39 994.5 - 3.2
15/10:00pm 12.7 - - - - W 48 63 26 34 995.2 - 3.2
15/09:30pm 12.5 - - - - WNW 43 52 23 28 994.9 - 3.2
15/09:00pm 12.4 - - - - NW 44 52 24 28 995.3 995.3 3.2
15/08:30pm 12.7 - - - - NW 48 61 26 33 995.1 - 3.0
15/08:00pm 12.7 - - - - NW 39 48 21 26 995.1 - 2.4
15/07:30pm 12.7 - - - - NW 46 59 25 32 995.3 - 2.0
15/07:00pm 12.8 - - - - WNW 52 67 28 36 995.6 - 1.8
15/06:30pm 13.4 - - - - WNW 59 70 32 38 995.5 - 1.6
15/06:00pm 13.1 - - - - WNW 57 65 31 35 995.5 995.5 1.6
15/05:30pm 13.1 - - - - WNW 63 70 34 38 995.6 - 1.6
15/05:00pm 13.7 - 14.6 - - WNW 57 70 31 38 995.6 - 1.6
15/04:53pm 13.8 - 14.7 - - NW 52 70 28 38 996.0 - 1.6
15/04:30pm 13.8 - 14.7 - - NW 46 57 25 31 996.5 - 1.6
15/04:00pm 13.7 6.7 13.7 100 0.0 NNW 43 52 23 28 996.6 - 1.6
15/03:30pm 13.5 - - - - NNW 41 50 22 27 996.9 - 1.6
15/03:00pm 13.8 - - - - NW 52 65 28 35 997.0 997.1 1.6
15/02:56pm 13.8 - - - - NW 54 69 29 37 997.0 - 1.6
15/02:30pm 13.1 - - - - NNW 39 52 21 28 997.9 - 1.6
15/02:00pm 13.8 - - - - N 35 46 19 25 998.3 - 1.6
15/01:30pm 12.2 - - - - N 39 50 21 27 998.6 - 1.4
15/01:00pm 12.5 - - - - N 35 43 19 23 998.8 - 1.4
15/12:30pm 12.7 - - - - N 33 44 18 24 999.7 - 1.0
15/12:00pm 11.5 - - - - N 30 33 16 18 1000.5 1000.6 1.0
15/11:30am 11.0 - - - - N 30 35 16 19 1001.7 - 1.0
15/11:00am 11.5 4.9 11.5 100 0.0 N 37 46 20 25 1002.9 - 0.2
15/10:30am 12.2 5.9 12.2 100 0.0 N 37 48 20 26 1003.2 - 0.0
15/10:00am 11.8 - - - - N 35 41 19 22 1003.7 - 0.0
15/09:30am 11.7 - - - - NNE 35 41 19 22 1004.5 - 0.0
15/09:00am 11.7 - - - - NNE 33 39 18 21 1005.0 1005.1 0.4
15/08:30am 11.8 - - - - NNE 30 35 16 19 1005.3 - 0.4
15/08:00am 11.3 - - - - NNE 33 41 18 22 1005.6 - 0.4
15/07:30am 11.3 - - - - NE 32 39 17 21 1006.2 - 0.4
15/07:00am 11.0 - - - - NNE 33 39 18 21 1006.5 - 0.4
15/06:30am 10.9 - - - - N 35 41 19 22 1007.3 - 0.4
15/06:00am 10.7 - - - - N 35 43 19 23 1007.4 1007.5 0.4
15/05:52am 10.7 - - - - N 33 43 18 23 1007.4 - 0.4
15/05:30am 10.2 - - - - NE 20 24 11 13 1007.2 - 0.4
15/05:00am 10.2 - - - - NNE 20 22 11 12 1008.2 - 0.2
15/04:30am 10.4 - - - - NE 20 24 11 13 1008.6 - 0.2
15/04:00am 10.5 - - - - NNE 20 20 11 11 1008.9 - 0.2
15/03:30am 10.5 - - - - N 19 22 10 12 1009.5 - 0.2
15/03:00am 10.7 - - - - N 19 20 10 11 1009.7 1009.8 0.2
15/02:30am 9.9 - - - - N 13 17 7 9 1010.0 - 0.2
15/02:00am 10.3 - - - - NNW 9 11 5 6 1010.2 - 0.0
15/01:30am 10.4 - - - - NNW 9 11 5 6 1011.0 - 0.0
15/01:00am 10.5 - - - - NW 13 15 7 8 1011.3 - 0.0
15/12:30am 10.6 - - - - NW 13 19 7 10 1011.6 - 0.0
15/12:00am 11.0 - - - - WNW 17 20 9 11 1011.8 1011.9 0.0
 
Date/Time
EST
Temp
°C
App
Temp
°C
Dew
Point
°C
Rel
Hum
%
Delta-T
°C
Wind Press
QNH
hPa
Press
MSL
hPa
Rain since
9am
mm
Dir  Spd
km/h
Gust
km/h
Spd
kts
Gust
kts
14/11:30pm 11.1 - - - - WNW 19 22 10 12 1012.1 - 0.0
14/11:00pm 11.1 - - - - W 28 30 15 16 1012.0 - 0.0
14/10:30pm 11.2 - - - - W 28 32 15 17 1012.2 - 0.0
14/10:00pm 11.3 - - - - WNW 24 28 13 15 1012.4 - 0.0
14/09:30pm 11.3 - - - - WNW 26 30 14 16 1012.5 - 0.0
14/09:00pm 11.3 - - - - W 24 28 13 15 1012.6 1012.7 0.0
14/08:30pm 11.3 - - - - W 28 32 15 17 1012.3 - 0.0
14/08:00pm 11.5 - - - - W 28 32 15 17 1012.3 - 0.0
14/07:30pm 11.5 - - - - W 30 33 16 18 1012.3 - 0.0
14/07:00pm 11.9 - - - - W 33 37 18 20 1012.2 - 0.0
14/06:30pm 11.9 - - - - W 39 43 21 23 1012.1 - 0.0
14/06:00pm 12.1 - - - - W 41 46 22 25 1012.0 1012.1 0.0
14/05:30pm 12.2 - - - - W 43 50 23 27 1011.8 - 0.0
14/05:00pm 12.7 - - - - W 50 57 27 31 1011.4 - 0.0
14/04:30pm 13.2 - - - - W 50 57 27 31 1010.7 - 0.0
14/04:00pm 13.6 - - - - W 57 65 31 35 1010.0 - 0.0
14/03:30pm 14.2 - - - - W 57 67 31 36 1010.2 - 0.0
14/03:00pm 13.9 - - - - WNW 44 52 24 28 1010.9 1011.0 0.0
14/02:30pm 14.3 - - - - W 50 61 27 33 1010.5 - 0.0
14/02:00pm 14.7 - 15.8 - - W 59 69 32 37 1010.2 - 0.0
14/01:30pm 14.7 3.5 14.7 100 0.0 W 67 76 36 41 1009.7 - 0.0
14/01:00pm 14.8 - 15.7 - - W 59 72 32 39 1009.9 - 0.0
14/12:30pm 15.3 - 15.9 - - W 56 69 30 37 1010.1 - 0.0
14/12:00pm 15.1 - 15.7 - - WNW 48 54 26 29 1011.1 1011.2 0.0
14/11:30am 15.3 - 15.9 - - WNW 46 54 25 29 1011.7 - 0.0
14/11:00am 14.6 - 15.1 - - WNW 50 59 27 32 1012.0 - 0.0
14/10:30am 15.1 - 15.9 - - WNW 48 57 26 31 1011.8 - 0.0
14/10:00am 13.8 - 14.6 - - WNW 48 56 26 30 1011.9 - 0.0
14/09:30am 14.6 - 15.1 - - WNW 52 57 28 31 1011.6 - 0.0
14/09:00am 14.3 - 14.8 - - WNW 52 65 28 35 1011.7 1011.8 0.0
14/08:30am 14.4 - 15.0 - - NW 41 54 22 29 1012.1 - 0.0
14/08:00am 13.5 - 14.4 - - NNW 35 39 19 21 1012.3 - 0.0
14/07:30am 12.5 - - - - NNW 35 39 19 21 1011.9 - -
14/07:00am 13.1 - 14.0 - - NNW 26 39 14 21 1011.6 - 0.0
14/06:30am 12.8 - 13.8 - - N 26 32 14 17 1011.8 - 0.0
14/06:00am 12.9 - 13.8 - - N 28 33 15 18 1012.0 1012.1 0.0

Other Formats:

Comma delimited format used in spreadsheet applications
http://www.bom.gov.au/fwo/IDV60801/IDV60801.94949.axf

JavaScript Object Notation format (JSON) in row-major order
http://www.bom.gov.au/fwo/IDV60801/IDV60801.94949.json